createdAt,value
2022-08-25T00:00:42.286Z,6.15
2022-08-25T00:03:14.468Z,6.28
2022-08-25T00:05:44.477Z,7.13
2022-08-25T00:08:14.057Z,8.25
2022-08-25T00:10:44.833Z,7.40
2022-08-25T00:13:34.174Z,9.10
2022-08-25T00:16:06.050Z,5.97
2022-08-25T00:18:37.688Z,9.30
2022-08-25T00:21:08.155Z,7.68
2022-08-25T00:23:39.405Z,7.70
2022-08-25T00:26:10.435Z,4.82
2022-08-25T00:28:40.947Z,7.50
2022-08-25T00:31:16.918Z,6.10
2022-08-25T00:33:51.948Z,8.82
2022-08-25T00:36:22.128Z,7.78
2022-08-25T00:38:50.927Z,8.15
2022-08-25T00:41:23.601Z,7.88
2022-08-25T00:43:54.792Z,7.40
2022-08-25T00:46:28.265Z,12.38
2022-08-25T00:49:00.494Z,12.77
2022-08-25T00:51:36.219Z,6.78
2022-08-25T00:54:05.815Z,8.55
2022-08-25T00:56:35.356Z,5.00
2022-08-25T00:59:05.277Z,6.38
2022-08-25T01:01:35.273Z,6.47
2022-08-25T01:04:03.591Z,6.88
2022-08-25T01:06:35.241Z,4.60
2022-08-25T01:09:03.690Z,3.53
2022-08-25T01:11:31.778Z,7.22
2022-08-25T01:14:03.319Z,5.03
2022-08-25T01:16:31.506Z,3.83
2022-08-25T01:19:01.434Z,3.55
2022-08-25T01:21:34.499Z,5.78
2022-08-25T01:24:02.785Z,5.13
2022-08-25T01:26:33.625Z,4.88
2022-08-25T01:29:22.903Z,6.85
2022-08-25T01:31:58.150Z,4.80
2022-08-25T01:34:27.710Z,6.85
2022-08-25T01:36:59.499Z,7.18
2022-08-25T01:39:30.089Z,11.15
2022-08-25T01:42:14.791Z,6.70
2022-08-25T01:44:45.838Z,5.32
2022-08-25T01:47:14.729Z,6.25
2022-08-25T01:49:43.063Z,8.40
2022-08-25T01:52:16.884Z,7.07
2022-08-25T01:54:45.494Z,6.32
2022-08-25T01:57:13.562Z,4.65
2022-08-25T01:59:41.644Z,6.55
2022-08-25T02:02:10.751Z,8.95
2022-08-25T02:04:39.609Z,5.78
2022-08-25T02:07:10.872Z,4.65
2022-08-25T02:09:40.503Z,6.72
2022-08-25T02:12:09.586Z,4.80
2022-08-25T02:14:37.829Z,3.35
2022-08-25T02:17:06.708Z,4.47
2022-08-25T02:19:34.783Z,4.63
2022-08-25T02:22:03.122Z,8.40
2022-08-25T02:24:31.144Z,6.45
2022-08-25T02:27:01.248Z,6.78
2022-08-25T02:29:29.447Z,6.70
2022-08-25T02:31:57.442Z,7.03
2022-08-25T02:34:25.584Z,6.85
2022-08-25T02:36:53.604Z,7.25
2022-08-25T02:39:21.801Z,7.82
2022-08-25T02:41:50.116Z,8.52
2022-08-25T02:44:19.602Z,10.70
2022-08-25T02:46:47.579Z,5.25
2022-08-25T02:49:15.605Z,6.85
2022-08-25T02:51:44.535Z,5.38
2022-08-25T02:54:12.611Z,10.52
2022-08-25T02:56:42.393Z,5.25
2022-08-25T02:59:12.223Z,8.73
2022-08-25T03:01:41.706Z,4.72
2022-08-25T03:04:09.770Z,4.57
2022-08-25T03:06:37.720Z,9.90
2022-08-25T03:09:05.922Z,5.50
2022-08-25T03:11:34.229Z,6.32
2022-08-25T03:14:02.204Z,5.32
2022-08-25T03:16:30.147Z,7.75
2022-08-25T03:19:00.648Z,11.40
2022-08-25T03:21:30.133Z,6.05
2022-08-25T03:23:58.578Z,8.65
2022-08-25T03:26:45.298Z,4.68
2022-08-25T03:29:14.044Z,4.68
2022-08-25T03:31:44.856Z,5.85
2022-08-25T03:34:16.771Z,6.95
2022-08-25T03:36:48.089Z,7.25
2022-08-25T03:39:23.545Z,6.47
2022-08-25T03:41:56.270Z,9.15
2022-08-25T03:44:30.269Z,7.82
2022-08-25T03:47:13.595Z,7.55
2022-08-25T03:49:50.882Z,5.35
2022-08-25T03:52:22.068Z,5.03
2022-08-25T03:54:58.414Z,6.38
2022-08-25T03:57:26.722Z,9.68
2022-08-25T03:59:57.118Z,8.30
2022-08-25T04:02:28.004Z,7.07
2022-08-25T04:05:00.789Z,8.93
2022-08-25T04:07:31.443Z,11.30
2022-08-25T04:10:05.092Z,7.60
2022-08-25T04:12:34.027Z,4.60
2022-08-25T04:15:05.874Z,9.00
2022-08-25T04:17:38.695Z,8.57
2022-08-25T04:20:14.277Z,6.90
2022-08-25T04:22:44.959Z,10.18
2022-08-25T04:25:14.578Z,5.45
2022-08-25T04:27:45.398Z,13.40
2022-08-25T04:30:15.547Z,5.75
2022-08-25T04:32:45.273Z,9.07
2022-08-25T04:35:17.606Z,6.78
2022-08-25T04:37:49.564Z,7.05
2022-08-25T04:40:37.150Z,8.60
2022-08-25T04:43:09.221Z,9.00
2022-08-25T04:45:40.386Z,7.63
2022-08-25T04:48:14.186Z,7.35
2022-08-25T04:50:46.434Z,6.60
2022-08-25T04:53:19.293Z,5.95
2022-08-25T04:55:49.292Z,5.20
2022-08-25T04:58:24.428Z,7.30
2022-08-25T05:00:53.740Z,7.00
2022-08-25T05:03:25.885Z,4.93
2022-08-25T05:05:55.675Z,6.53
2022-08-25T05:08:25.708Z,10.45
2022-08-25T05:10:56.795Z,9.45
2022-08-25T05:13:29.515Z,9.90
2022-08-25T05:16:01.955Z,6.13
2022-08-25T05:18:34.615Z,15.20
2022-08-25T05:21:18.494Z,9.07
2022-08-25T05:26:20.694Z,8.60
2022-08-25T05:31:37.407Z,11.13
2022-08-25T05:34:10.919Z,6.75
2022-08-25T05:36:47.425Z,8.82
2022-08-25T05:39:19.840Z,11.00
2022-08-25T05:41:52.040Z,6.15
2022-08-25T05:44:45.428Z,7.57
2022-08-25T05:47:15.884Z,8.65
2022-08-25T05:49:57.355Z,10.48
2022-08-25T05:52:34.260Z,7.82
2022-08-25T05:55:05.272Z,9.88
2022-08-25T05:57:39.925Z,8.88
2022-08-25T06:00:18.986Z,11.00
2022-08-25T06:02:48.822Z,8.23
2022-08-25T06:05:20.142Z,8.85
2022-08-25T06:07:55.406Z,8.60
2022-08-25T06:10:27.343Z,7.47
2022-08-25T06:13:00.707Z,9.75
2022-08-25T06:15:37.899Z,10.60
2022-08-25T06:18:08.343Z,9.15
2022-08-25T06:20:44.464Z,11.70
2022-08-25T06:23:21.494Z,10.25
2022-08-25T06:25:53.761Z,11.43
2022-08-25T06:28:24.757Z,9.55
2022-08-25T06:31:01.483Z,11.32
2022-08-25T06:33:37.448Z,10.07
2022-08-25T06:36:13.438Z,23.75
2022-08-25T06:38:43.522Z,9.65
2022-08-25T06:41:13.948Z,11.00
2022-08-25T06:43:48.092Z,8.63
2022-08-25T06:46:20.184Z,11.63
2022-08-25T06:48:48.982Z,10.05
2022-08-25T06:51:19.715Z,12.13
2022-08-25T06:53:51.073Z,17.92
2022-08-25T06:56:21.441Z,13.50
2022-08-25T06:58:52.074Z,13.57
2022-08-25T07:01:23.372Z,13.32
2022-08-25T07:03:57.323Z,13.27
2022-08-25T07:06:27.317Z,15.40
2022-08-25T07:08:57.742Z,14.70
2022-08-25T07:11:27.018Z,14.20
2022-08-25T07:13:55.355Z,17.50
2022-08-25T07:16:29.588Z,18.83
2022-08-25T07:19:00.306Z,15.10
2022-08-25T07:21:33.697Z,15.10
2022-08-25T07:24:09.672Z,11.35
2022-08-25T07:26:42.769Z,11.98
2022-08-25T07:29:19.200Z,12.25
2022-08-25T07:31:52.213Z,11.23
2022-08-25T07:34:41.217Z,12.63
2022-08-25T07:37:15.056Z,9.65
2022-08-25T07:39:53.819Z,15.50
2022-08-25T07:42:22.202Z,10.57
2022-08-25T07:44:50.427Z,15.82
2022-08-25T07:47:23.053Z,17.25
2022-08-25T07:49:51.314Z,19.15
2022-08-25T07:52:20.057Z,15.68
2022-08-25T07:54:48.509Z,16.73
2022-08-25T07:57:19.703Z,18.45
2022-08-25T07:59:48.557Z,23.88
2022-08-25T08:02:19.537Z,15.07
2022-08-25T08:04:50.181Z,13.65
2022-08-25T08:07:19.735Z,10.38
2022-08-25T08:09:55.812Z,16.65
2022-08-25T08:12:30.256Z,14.00
2022-08-25T08:15:00.158Z,12.27
2022-08-25T08:17:28.609Z,8.05
2022-08-25T08:19:56.751Z,17.75
2022-08-25T08:22:24.930Z,17.13
2022-08-25T08:24:56.216Z,11.77
2022-08-25T08:27:25.475Z,11.57
2022-08-25T08:29:55.108Z,20.90
2022-08-25T08:32:31.424Z,8.52
2022-08-25T08:35:12.169Z,11.13
2022-08-25T08:37:42.409Z,7.37
2022-08-25T08:40:14.815Z,7.63
2022-08-25T08:43:03.213Z,9.82
2022-08-25T08:45:43.821Z,13.20
2022-08-25T08:48:36.809Z,8.73
2022-08-25T08:51:20.477Z,10.70
2022-08-25T08:54:00.034Z,10.07
2022-08-25T08:56:33.884Z,7.97
2022-08-25T08:59:06.879Z,11.85
2022-08-25T09:01:45.291Z,8.32
2022-08-25T09:04:24.300Z,7.78
2022-08-25T09:06:55.045Z,13.00
2022-08-25T09:09:35.520Z,12.43
2022-08-25T09:12:14.119Z,10.60
2022-08-25T09:15:12.664Z,10.73
2022-08-25T09:18:02.762Z,8.43
2022-08-25T09:20:52.096Z,10.73
2022-08-25T09:23:35.066Z,5.75
2022-08-25T09:26:18.482Z,9.50
2022-08-25T09:31:29.566Z,4.10
2022-08-25T09:34:05.245Z,4.95
2022-08-25T09:36:37.827Z,10.52
2022-08-25T09:39:09.924Z,13.10
2022-08-25T09:41:45.777Z,13.57
2022-08-25T09:44:29.094Z,16.25
2022-08-25T09:47:02.673Z,15.43
2022-08-25T09:49:40.564Z,23.00
2022-08-25T09:52:25.345Z,16.85
2022-08-25T09:54:57.768Z,15.52
2022-08-25T09:57:36.888Z,11.98
2022-08-25T10:00:16.938Z,13.43
2022-08-25T10:03:02.986Z,17.63
2022-08-25T10:05:49.779Z,30.75
2022-08-25T10:08:34.241Z,20.42
2022-08-25T10:11:09.054Z,15.40
2022-08-25T10:13:47.417Z,13.77
2022-08-25T10:16:25.911Z,18.65
2022-08-25T10:19:05.049Z,13.57
2022-08-25T10:21:36.465Z,11.48
2022-08-25T10:24:06.255Z,17.30
2022-08-25T10:26:56.936Z,14.55
2022-08-25T10:29:51.017Z,21.55
2022-08-25T10:32:28.475Z,10.18
2022-08-25T10:35:00.632Z,16.55
2022-08-25T10:37:43.899Z,15.10
2022-08-25T10:40:20.929Z,14.05
2022-08-25T10:43:04.044Z,18.13
2022-08-25T10:45:45.060Z,12.77
2022-08-25T10:48:27.932Z,14.57
2022-08-25T10:51:03.186Z,18.27
2022-08-25T10:53:47.986Z,13.98
2022-08-25T10:56:22.633Z,22.58
2022-08-25T10:59:19.096Z,15.55
2022-08-25T11:02:13.122Z,26.75
2022-08-25T11:04:48.531Z,29.38
2022-08-25T11:07:27.602Z,23.40
2022-08-25T11:10:05.652Z,26.00
2022-08-25T11:12:40.430Z,17.38
2022-08-25T11:15:16.092Z,14.73
2022-08-25T11:17:55.509Z,7.78
2022-08-25T11:20:34.847Z,9.32
2022-08-25T11:23:14.800Z,12.65
2022-08-25T11:25:50.032Z,8.50
2022-08-25T11:28:30.728Z,8.77
2022-08-25T11:31:03.946Z,7.00
2022-08-25T11:33:36.316Z,8.65
2022-08-25T11:38:56.434Z,6.00
2022-08-25T11:41:40.201Z,7.93
2022-08-25T11:47:19.089Z,9.95
2022-08-25T11:49:58.005Z,8.13
2022-08-25T11:52:51.067Z,8.90
2022-08-25T11:55:23.876Z,9.18
2022-08-25T11:58:23.016Z,5.05
2022-08-25T12:00:52.540Z,7.80
2022-08-25T12:03:52.354Z,9.90
2022-08-25T12:06:29.516Z,12.60
2022-08-25T12:09:24.005Z,19.33
2022-08-25T12:12:00.277Z,20.75
2022-08-25T12:14:47.419Z,13.07
2022-08-25T12:17:29.981Z,11.90
2022-08-25T12:20:03.161Z,9.00
2022-08-25T12:22:55.909Z,6.38
2022-08-25T12:25:34.052Z,6.00
2022-08-25T12:28:10.403Z,6.18
2022-08-25T12:30:50.527Z,7.57
2022-08-25T12:33:33.362Z,7.40
2022-08-25T12:36:05.414Z,9.43
2022-08-25T12:38:43.189Z,8.43
2022-08-25T12:41:30.872Z,12.02
2022-08-25T12:44:39.090Z,11.95
2022-08-25T12:47:28.043Z,8.75
2022-08-25T12:50:28.740Z,5.85
2022-08-25T12:53:08.897Z,5.75
2022-08-25T12:55:41.736Z,5.10
2022-08-25T12:58:17.948Z,4.25
2022-08-25T13:01:07.671Z,4.63
2022-08-25T13:04:02.866Z,4.45
2022-08-25T13:06:58.276Z,9.13
2022-08-25T13:10:07.588Z,10.35
2022-08-25T13:12:43.266Z,5.18
2022-08-25T13:15:19.171Z,6.55
2022-08-25T13:18:02.144Z,3.95
2022-08-25T13:20:38.043Z,2.88
2022-08-25T13:23:08.357Z,10.85
2022-08-25T13:25:54.625Z,5.60
2022-08-25T13:28:33.656Z,8.50
2022-08-25T13:31:11.940Z,5.28
2022-08-25T13:33:54.733Z,6.70
2022-08-25T13:36:54.330Z,7.70
2022-08-25T13:39:52.860Z,12.07
2022-08-25T13:42:24.499Z,4.57
2022-08-25T13:44:58.022Z,7.57
2022-08-25T13:47:45.333Z,7.68
2022-08-25T13:50:31.238Z,5.25
2022-08-25T13:53:07.708Z,5.32
2022-08-25T13:55:52.994Z,7.07
2022-08-25T13:58:38.911Z,4.85
2022-08-25T14:01:46.548Z,8.23
2022-08-25T14:04:33.898Z,5.55
2022-08-25T14:07:19.521Z,6.03
2022-08-25T14:09:55.083Z,4.50
2022-08-25T14:12:47.338Z,5.03
2022-08-25T14:15:34.312Z,4.25
2022-08-25T14:18:10.191Z,4.00
2022-08-25T14:20:51.492Z,4.43
2022-08-25T14:23:24.646Z,7.47
2022-08-25T14:25:58.104Z,6.15
2022-08-25T14:28:32.359Z,10.85
2022-08-25T14:31:10.787Z,5.20
2022-08-25T14:33:50.121Z,5.13
2022-08-25T14:36:20.904Z,6.63
2022-08-25T14:38:54.875Z,3.45
2022-08-25T14:41:29.314Z,4.13
2022-08-25T14:44:00.517Z,4.60
2022-08-25T14:46:36.737Z,3.25
2022-08-25T14:49:08.809Z,3.47
2022-08-25T14:51:44.562Z,3.40
2022-08-25T14:54:19.651Z,4.25
2022-08-25T14:56:56.722Z,4.70
2022-08-25T14:59:29.407Z,5.57
2022-08-25T15:02:01.071Z,6.70
2022-08-25T15:04:32.111Z,3.88
2022-08-25T15:07:24.200Z,4.57
2022-08-25T15:09:54.860Z,4.47
2022-08-25T15:12:46.620Z,8.52
2022-08-25T15:15:17.617Z,4.47
2022-08-25T15:17:50.800Z,7.53
2022-08-25T15:20:20.252Z,8.20
2022-08-25T15:22:49.781Z,4.53
2022-08-25T15:25:18.808Z,11.48
2022-08-25T15:27:59.006Z,6.63
2022-08-25T15:30:30.919Z,7.38
2022-08-25T15:33:05.980Z,4.33
2022-08-25T15:35:45.085Z,7.75
2022-08-25T15:38:14.514Z,4.40
2022-08-25T15:40:42.664Z,3.90
2022-08-25T15:43:12.004Z,5.10
2022-08-25T15:45:40.217Z,6.50
2022-08-25T15:48:09.908Z,4.45
2022-08-25T15:50:39.178Z,5.70
2022-08-25T15:53:11.197Z,5.68
2022-08-25T15:55:46.368Z,6.57
2022-08-25T15:58:26.811Z,5.85
2022-08-25T16:00:56.468Z,4.88
2022-08-25T16:03:27.405Z,4.30
2022-08-25T16:05:57.892Z,6.05
2022-08-25T16:08:27.542Z,7.32
2022-08-25T16:10:57.340Z,6.53
2022-08-25T16:13:38.814Z,6.35
2022-08-25T16:16:16.288Z,11.25
2022-08-25T16:18:47.942Z,7.53
2022-08-25T16:21:23.156Z,10.93
2022-08-25T16:24:07.229Z,7.40
2022-08-25T16:26:48.621Z,7.18
2022-08-25T16:29:26.119Z,4.70
2022-08-25T16:32:05.882Z,4.80
2022-08-25T16:34:40.042Z,6.00
2022-08-25T16:37:12.359Z,5.38
2022-08-25T16:39:46.432Z,8.13
2022-08-25T16:42:16.593Z,5.50
2022-08-25T16:44:50.088Z,8.70
2022-08-25T16:47:25.093Z,6.18
2022-08-25T16:49:56.399Z,7.40
2022-08-25T16:52:47.275Z,3.58
2022-08-25T16:55:18.033Z,7.15
2022-08-25T16:57:49.440Z,5.85
2022-08-25T17:00:23.438Z,7.32
2022-08-25T17:02:56.117Z,7.53
2022-08-25T17:05:25.852Z,8.88
2022-08-25T17:08:13.618Z,8.15
2022-08-25T17:10:43.902Z,9.48
2022-08-25T17:13:12.932Z,9.07
2022-08-25T17:15:45.553Z,8.23
2022-08-25T17:18:14.471Z,10.05
2022-08-25T17:20:45.470Z,13.45
2022-08-25T17:23:15.646Z,11.38
2022-08-25T17:25:44.465Z,9.48
2022-08-25T17:28:13.584Z,7.43
2022-08-25T17:30:44.264Z,6.60
2022-08-25T17:33:15.922Z,9.63
2022-08-25T17:35:51.839Z,10.73
2022-08-25T17:38:26.331Z,9.05
2022-08-25T17:40:59.162Z,6.60
2022-08-25T17:43:29.135Z,8.15
2022-08-25T17:45:59.658Z,7.25
2022-08-25T17:48:30.558Z,10.18
2022-08-25T17:51:07.061Z,12.45
2022-08-25T17:53:41.416Z,8.95
2022-08-25T17:56:12.705Z,9.10
2022-08-25T17:58:44.027Z,13.30
2022-08-25T18:01:19.814Z,6.95
2022-08-25T18:03:51.842Z,8.45
2022-08-25T18:06:21.291Z,16.10
2022-08-25T18:08:54.501Z,7.55
2022-08-25T18:11:27.620Z,7.85
2022-08-25T18:13:56.085Z,8.05
2022-08-25T18:16:27.227Z,7.50
2022-08-25T18:18:57.107Z,8.02
2022-08-25T18:21:30.318Z,7.80
2022-08-25T18:23:59.770Z,8.80
2022-08-25T18:26:28.217Z,12.38
2022-08-25T18:28:59.455Z,14.63
2022-08-25T18:31:29.475Z,14.27
2022-08-25T18:33:59.022Z,16.20
2022-08-25T18:36:28.010Z,16.17
2022-08-25T18:39:14.369Z,16.75
2022-08-25T18:41:45.642Z,12.85
2022-08-25T18:44:15.829Z,15.32
2022-08-25T18:46:46.251Z,14.45
2022-08-25T18:49:15.880Z,16.05
2022-08-25T18:51:44.712Z,17.50
2022-08-25T18:54:23.120Z,17.02
2022-08-25T18:56:54.651Z,15.40
2022-08-25T18:59:24.118Z,13.85
2022-08-25T19:01:54.975Z,10.10
2022-08-25T19:04:28.610Z,11.35
2022-08-25T19:07:00.989Z,13.60
2022-08-25T19:09:30.821Z,11.48
2022-08-25T19:11:59.969Z,10.73
2022-08-25T19:14:29.191Z,13.88
2022-08-25T19:16:59.522Z,10.43
2022-08-25T19:19:29.534Z,10.77
2022-08-25T19:21:58.209Z,10.30
2022-08-25T19:24:28.291Z,9.38
2022-08-25T19:26:56.855Z,12.75
2022-08-25T19:29:26.953Z,10.85
2022-08-25T19:32:01.928Z,10.73
2022-08-25T19:34:32.915Z,8.88
2022-08-25T19:37:04.353Z,7.13
2022-08-25T19:39:34.528Z,8.30
2022-08-25T19:42:05.169Z,9.82
2022-08-25T19:44:39.585Z,9.90
2022-08-25T19:47:13.489Z,13.00
2022-08-25T19:49:42.877Z,13.30
2022-08-25T19:52:16.865Z,10.13
2022-08-25T19:54:47.465Z,13.88
2022-08-25T19:57:20.805Z,24.35
2022-08-25T20:00:00.112Z,12.20
2022-08-25T20:02:33.767Z,13.60
2022-08-25T20:05:04.055Z,12.43
2022-08-25T20:10:14.150Z,11.65
2022-08-25T20:12:46.006Z,13.10
2022-08-25T20:15:18.425Z,13.18
2022-08-25T20:17:50.436Z,14.68
2022-08-25T20:20:32.432Z,18.23
2022-08-25T20:23:22.902Z,10.73
2022-08-25T20:25:53.249Z,17.05
2022-08-25T20:28:24.269Z,12.88
2022-08-25T20:30:57.306Z,16.45
2022-08-25T20:33:29.987Z,18.58
2022-08-25T20:36:02.781Z,23.98
2022-08-25T20:38:32.112Z,11.75
2022-08-25T20:41:03.915Z,15.25
2022-08-25T20:43:33.534Z,20.88
2022-08-25T20:46:04.040Z,13.35
2022-08-25T20:48:35.290Z,15.50
2022-08-25T20:51:08.744Z,12.88
2022-08-25T20:56:10.429Z,8.85
2022-08-25T20:58:41.441Z,14.48
2022-08-25T21:01:11.745Z,15.82
2022-08-25T21:03:42.692Z,13.00
2022-08-25T21:06:14.268Z,18.38
2022-08-25T21:08:48.146Z,8.95
2022-08-25T21:11:19.816Z,13.23
2022-08-25T21:13:50.535Z,10.90
2022-08-25T21:16:20.509Z,11.80
2022-08-25T21:18:51.854Z,9.32
2022-08-25T21:21:23.085Z,15.10
2022-08-25T21:23:55.436Z,9.18
2022-08-25T21:26:28.537Z,10.32
2022-08-25T21:29:00.525Z,11.55
2022-08-25T21:31:31.732Z,11.05
2022-08-25T21:34:03.064Z,11.23
2022-08-25T21:36:34.631Z,18.13
2022-08-25T21:39:03.086Z,13.30
2022-08-25T21:41:35.737Z,12.35
2022-08-25T21:44:04.982Z,9.50
2022-08-25T21:46:34.041Z,11.75
2022-08-25T21:49:06.260Z,18.70
2022-08-25T21:51:36.293Z,16.97
2022-08-25T21:54:12.797Z,10.07
2022-08-25T21:56:43.888Z,10.10
2022-08-25T21:59:14.465Z,14.27
2022-08-25T22:01:45.411Z,16.98
2022-08-25T22:04:15.337Z,16.98
2022-08-25T22:06:44.458Z,11.45
2022-08-25T22:09:13.691Z,16.77
2022-08-25T22:11:43.381Z,16.13
2022-08-25T22:14:12.568Z,16.65
2022-08-25T22:16:41.299Z,20.35
2022-08-25T22:19:11.714Z,18.85
2022-08-25T22:21:42.716Z,18.50
2022-08-25T22:24:11.243Z,21.75
2022-08-25T22:26:40.325Z,27.08
2022-08-25T22:29:08.729Z,25.83
2022-08-25T22:31:37.542Z,30.35
2022-08-25T22:34:05.987Z,28.77
2022-08-25T22:36:36.568Z,28.55
2022-08-25T22:39:08.655Z,25.35
2022-08-25T22:41:37.142Z,34.13
2022-08-25T22:44:10.005Z,21.27
2022-08-25T22:46:38.085Z,33.88
2022-08-25T22:49:06.385Z,27.27
2022-08-25T22:51:37.178Z,40.55
2022-08-25T22:54:07.265Z,33.70
2022-08-25T22:56:39.069Z,40.08
2022-08-25T22:59:09.694Z,33.00
2022-08-25T23:01:39.681Z,35.75
2022-08-25T23:04:09.374Z,34.67
2022-08-25T23:06:39.341Z,34.10
2022-08-25T23:09:10.385Z,36.50
2022-08-25T23:11:38.982Z,36.65
2022-08-25T23:14:10.294Z,40.78
2022-08-25T23:16:38.690Z,39.92
2022-08-25T23:19:07.178Z,32.28
2022-08-25T23:21:53.485Z,26.98
2022-08-25T23:24:29.472Z,32.50
2022-08-25T23:26:59.136Z,28.80
2022-08-25T23:29:27.786Z,33.50
2022-08-25T23:31:57.132Z,35.65
2022-08-25T23:34:26.009Z,36.22
2022-08-25T23:36:54.011Z,34.53
2022-08-25T23:39:22.784Z,30.92
2022-08-25T23:41:52.877Z,34.35
2022-08-25T23:44:24.542Z,29.75
2022-08-25T23:46:54.765Z,34.15
2022-08-25T23:49:25.863Z,29.02
2022-08-25T23:51:57.831Z,25.38
2022-08-25T23:54:31.086Z,25.67
2022-08-25T23:57:03.705Z,34.53
2022-08-25T23:59:38.350Z,27.25
